sensor_id;sensor_type;location;lat;lon;timestamp;P1;durP1;ratioP1;P2;durP2;ratioP2
59728;SDS011;45588;51.598;5.618;2024-02-15T00:01:54;36.05;;;17.20;;
59728;SDS011;45588;51.598;5.618;2024-02-15T00:04:19;31.63;;;16.63;;
59728;SDS011;45588;51.598;5.618;2024-02-15T00:06:45;36.22;;;15.95;;
59728;SDS011;45588;51.598;5.618;2024-02-15T00:09:10;33.03;;;15.30;;
59728;SDS011;45588;51.598;5.618;2024-02-15T00:11:35;38.17;;;15.07;;
59728;SDS011;45588;51.598;5.618;2024-02-15T00:14:00;31.87;;;14.97;;
59728;SDS011;45588;51.598;5.618;2024-02-15T00:16:26;41.70;;;16.08;;
59728;SDS011;45588;51.598;5.618;2024-02-15T00:18:52;34.50;;;16.17;;
59728;SDS011;45588;51.598;5.618;2024-02-15T00:21:20;39.58;;;17.00;;
59728;SDS011;45588;51.598;5.618;2024-02-15T00:23:45;63.13;;;38.35;;
59728;SDS011;45588;51.598;5.618;2024-02-15T00:26:10;42.42;;;17.25;;
59728;SDS011;45588;51.598;5.618;2024-02-15T00:28:37;42.80;;;17.48;;
59728;SDS011;45588;51.598;5.618;2024-02-15T00:31:02;34.45;;;16.65;;
59728;SDS011;45588;51.598;5.618;2024-02-15T00:33:27;42.38;;;17.98;;
59728;SDS011;45588;51.598;5.618;2024-02-15T00:35:53;46.28;;;16.83;;
59728;SDS011;45588;51.598;5.618;2024-02-15T00:38:18;62.33;;;37.23;;
59728;SDS011;45588;51.598;5.618;2024-02-15T00:40:44;65.68;;;39.10;;
59728;SDS011;45588;51.598;5.618;2024-02-15T00:43:10;72.20;;;39.78;;
59728;SDS011;45588;51.598;5.618;2024-02-15T00:45:35;40.50;;;17.57;;
59728;SDS011;45588;51.598;5.618;2024-02-15T00:48:01;66.00;;;17.42;;
59728;SDS011;45588;51.598;5.618;2024-02-15T00:50:26;41.27;;;18.50;;
59728;SDS011;45588;51.598;5.618;2024-02-15T00:52:51;48.10;;;16.87;;
59728;SDS011;45588;51.598;5.618;2024-02-15T00:55:16;41.57;;;18.30;;
59728;SDS011;45588;51.598;5.618;2024-02-15T00:57:41;72.28;;;40.17;;
59728;SDS011;45588;51.598;5.618;2024-02-15T01:00:07;44.87;;;18.97;;
59728;SDS011;45588;51.598;5.618;2024-02-15T01:02:34;39.30;;;17.10;;
59728;SDS011;45588;51.598;5.618;2024-02-15T01:05:00;51.10;;;18.75;;
59728;SDS011;45588;51.598;5.618;2024-02-15T01:07:25;42.92;;;16.25;;
59728;SDS011;45588;51.598;5.618;2024-02-15T01:09:52;34.95;;;17.73;;
59728;SDS011;45588;51.598;5.618;2024-02-15T01:12:18;46.78;;;17.63;;
59728;SDS011;45588;51.598;5.618;2024-02-15T01:14:43;36.30;;;15.60;;
59728;SDS011;45588;51.598;5.618;2024-02-15T01:17:08;41.25;;;16.70;;
59728;SDS011;45588;51.598;5.618;2024-02-15T01:19:33;29.77;;;14.68;;
59728;SDS011;45588;51.598;5.618;2024-02-15T01:21:59;45.08;;;15.05;;
59728;SDS011;45588;51.598;5.618;2024-02-15T01:24:24;34.25;;;15.68;;
59728;SDS011;45588;51.598;5.618;2024-02-15T01:26:50;38.83;;;17.77;;
59728;SDS011;45588;51.598;5.618;2024-02-15T01:29:15;56.13;;;31.63;;
59728;SDS011;45588;51.598;5.618;2024-02-15T01:31:40;59.13;;;32.17;;
59728;SDS011;45588;51.598;5.618;2024-02-15T01:34:05;35.33;;;15.03;;
59728;SDS011;45588;51.598;5.618;2024-02-15T01:36:30;32.90;;;13.57;;
59728;SDS011;45588;51.598;5.618;2024-02-15T01:38:56;37.13;;;14.33;;
59728;SDS011;45588;51.598;5.618;2024-02-15T01:41:21;63.87;;;30.23;;
59728;SDS011;45588;51.598;5.618;2024-02-15T01:43:46;37.60;;;13.00;;
59728;SDS011;45588;51.598;5.618;2024-02-15T01:46:12;30.25;;;13.15;;
59728;SDS011;45588;51.598;5.618;2024-02-15T01:48:39;34.17;;;13.93;;
59728;SDS011;45588;51.598;5.618;2024-02-15T01:51:05;34.00;;;13.13;;
59728;SDS011;45588;51.598;5.618;2024-02-15T01:53:30;58.67;;;28.23;;
59728;SDS011;45588;51.598;5.618;2024-02-15T01:55:57;36.72;;;13.88;;
59728;SDS011;45588;51.598;5.618;2024-02-15T01:58:24;39.38;;;12.98;;
59728;SDS011;45588;51.598;5.618;2024-02-15T02:00:50;26.70;;;12.20;;
59728;SDS011;45588;51.598;5.618;2024-02-15T02:03:16;32.25;;;12.45;;
59728;SDS011;45588;51.598;5.618;2024-02-15T02:05:41;53.90;;;25.53;;
59728;SDS011;45588;51.598;5.618;2024-02-15T02:08:07;32.47;;;11.65;;
59728;SDS011;45588;51.598;5.618;2024-02-15T02:10:35;28.05;;;11.02;;
59728;SDS011;45588;51.598;5.618;2024-02-15T02:13:00;37.60;;;10.82;;
59728;SDS011;45588;51.598;5.618;2024-02-15T02:15:28;31.70;;;13.23;;
59728;SDS011;45588;51.598;5.618;2024-02-15T02:17:56;26.85;;;10.68;;
59728;SDS011;45588;51.598;5.618;2024-02-15T02:20:21;39.42;;;11.13;;
59728;SDS011;45588;51.598;5.618;2024-02-15T02:22:46;33.58;;;10.63;;
59728;SDS011;45588;51.598;5.618;2024-02-15T02:25:13;37.17;;;11.23;;
59728;SDS011;45588;51.598;5.618;2024-02-15T02:27:38;30.10;;;10.30;;
59728;SDS011;45588;51.598;5.618;2024-02-15T02:30:13;25.20;;;9.87;;
59728;SDS011;45588;51.598;5.618;2024-02-15T02:32:45;29.52;;;11.48;;
59728;SDS011;45588;51.598;5.618;2024-02-15T02:35:11;23.20;;;10.57;;
59728;SDS011;45588;51.598;5.618;2024-02-15T02:37:41;29.23;;;8.88;;
59728;SDS011;45588;51.598;5.618;2024-02-15T02:40:06;36.38;;;9.55;;
59728;SDS011;45588;51.598;5.618;2024-02-15T02:42:46;29.17;;;10.32;;
59728;SDS011;45588;51.598;5.618;2024-02-15T02:45:11;24.10;;;9.80;;
59728;SDS011;45588;51.598;5.618;2024-02-15T02:47:36;47.05;;;20.25;;
59728;SDS011;45588;51.598;5.618;2024-02-15T02:50:01;38.30;;;9.70;;
59728;SDS011;45588;51.598;5.618;2024-02-15T02:52:28;31.10;;;10.48;;
59728;SDS011;45588;51.598;5.618;2024-02-15T02:54:53;26.63;;;8.20;;
59728;SDS011;45588;51.598;5.618;2024-02-15T02:57:18;18.83;;;9.03;;
59728;SDS011;45588;51.598;5.618;2024-02-15T02:59:43;29.75;;;9.75;;
59728;SDS011;45588;51.598;5.618;2024-02-15T03:02:08;20.77;;;7.73;;
59728;SDS011;45588;51.598;5.618;2024-02-15T03:04:34;23.13;;;10.40;;
59728;SDS011;45588;51.598;5.618;2024-02-15T03:06:59;28.60;;;9.27;;
59728;SDS011;45588;51.598;5.618;2024-02-15T03:09:24;46.67;;;18.52;;
59728;SDS011;45588;51.598;5.618;2024-02-15T03:11:54;17.67;;;8.27;;
59728;SDS011;45588;51.598;5.618;2024-02-15T03:14:19;28.67;;;8.53;;
59728;SDS011;45588;51.598;5.618;2024-02-15T03:16:45;20.52;;;7.75;;
59728;SDS011;45588;51.598;5.618;2024-02-15T03:19:10;33.83;;;8.63;;
59728;SDS011;45588;51.598;5.618;2024-02-15T03:21:36;24.33;;;8.63;;
59728;SDS011;45588;51.598;5.618;2024-02-15T03:24:02;24.70;;;9.60;;
59728;SDS011;45588;51.598;5.618;2024-02-15T03:26:31;20.52;;;8.77;;
59728;SDS011;45588;51.598;5.618;2024-02-15T03:29:02;27.63;;;9.52;;
59728;SDS011;45588;51.598;5.618;2024-02-15T03:31:27;26.25;;;8.77;;
59728;SDS011;45588;51.598;5.618;2024-02-15T03:33:52;22.93;;;9.67;;
59728;SDS011;45588;51.598;5.618;2024-02-15T03:36:19;25.65;;;9.55;;
59728;SDS011;45588;51.598;5.618;2024-02-15T03:38:45;31.83;;;8.50;;
59728;SDS011;45588;51.598;5.618;2024-02-15T03:41:11;24.08;;;7.47;;
59728;SDS011;45588;51.598;5.618;2024-02-15T03:43:36;26.27;;;8.97;;
59728;SDS011;45588;51.598;5.618;2024-02-15T03:46:02;31.07;;;10.33;;
59728;SDS011;45588;51.598;5.618;2024-02-15T03:48:27;26.67;;;8.50;;
59728;SDS011;45588;51.598;5.618;2024-02-15T03:50:52;15.90;;;8.57;;
59728;SDS011;45588;51.598;5.618;2024-02-15T03:53:18;21.80;;;7.78;;
59728;SDS011;45588;51.598;5.618;2024-02-15T03:55:43;27.00;;;8.23;;
59728;SDS011;45588;51.598;5.618;2024-02-15T03:58:08;27.73;;;8.10;;
59728;SDS011;45588;51.598;5.618;2024-02-15T04:00:34;19.63;;;8.35;;
59728;SDS011;45588;51.598;5.618;2024-02-15T04:02:59;22.40;;;8.00;;
59728;SDS011;45588;51.598;5.618;2024-02-15T04:05:25;17.05;;;7.45;;
59728;SDS011;45588;51.598;5.618;2024-02-15T04:07:51;23.00;;;8.25;;
59728;SDS011;45588;51.598;5.618;2024-02-15T04:10:17;25.58;;;8.30;;
59728;SDS011;45588;51.598;5.618;2024-02-15T04:12:45;18.08;;;7.07;;
59728;SDS011;45588;51.598;5.618;2024-02-15T04:15:11;31.90;;;15.02;;
59728;SDS011;45588;51.598;5.618;2024-02-15T04:17:41;14.05;;;7.22;;
59728;SDS011;45588;51.598;5.618;2024-02-15T04:20:08;23.77;;;7.88;;
59728;SDS011;45588;51.598;5.618;2024-02-15T04:22:34;20.42;;;7.05;;
59728;SDS011;45588;51.598;5.618;2024-02-15T04:25:02;15.65;;;7.13;;
59728;SDS011;45588;51.598;5.618;2024-02-15T04:27:27;20.92;;;8.07;;
59728;SDS011;45588;51.598;5.618;2024-02-15T04:29:52;14.20;;;6.72;;
59728;SDS011;45588;51.598;5.618;2024-02-15T04:32:17;16.90;;;5.93;;
59728;SDS011;45588;51.598;5.618;2024-02-15T04:34:44;23.23;;;7.38;;
59728;SDS011;45588;51.598;5.618;2024-02-15T04:37:11;39.78;;;14.27;;
59728;SDS011;45588;51.598;5.618;2024-02-15T04:39:36;21.90;;;6.60;;
59728;SDS011;45588;51.598;5.618;2024-02-15T04:42:02;18.50;;;6.15;;
59728;SDS011;45588;51.598;5.618;2024-02-15T04:44:28;16.38;;;6.20;;
59728;SDS011;45588;51.598;5.618;2024-02-15T04:46:53;18.40;;;6.43;;
59728;SDS011;45588;51.598;5.618;2024-02-15T04:49:18;25.85;;;12.15;;
59728;SDS011;45588;51.598;5.618;2024-02-15T04:51:44;16.35;;;6.05;;
59728;SDS011;45588;51.598;5.618;2024-02-15T04:54:09;16.95;;;5.85;;
59728;SDS011;45588;51.598;5.618;2024-02-15T04:56:38;15.68;;;6.45;;
59728;SDS011;45588;51.598;5.618;2024-02-15T04:59:03;13.00;;;5.68;;
59728;SDS011;45588;51.598;5.618;2024-02-15T05:01:28;12.70;;;5.22;;
59728;SDS011;45588;51.598;5.618;2024-02-15T05:03:54;20.52;;;5.80;;
59728;SDS011;45588;51.598;5.618;2024-02-15T05:06:20;13.65;;;6.75;;
59728;SDS011;45588;51.598;5.618;2024-02-15T05:08:45;16.67;;;5.65;;
59728;SDS011;45588;51.598;5.618;2024-02-15T05:11:12;16.95;;;5.18;;
59728;SDS011;45588;51.598;5.618;2024-02-15T05:13:43;13.32;;;5.20;;
59728;SDS011;45588;51.598;5.618;2024-02-15T05:16:08;23.27;;;5.47;;
59728;SDS011;45588;51.598;5.618;2024-02-15T05:18:33;12.65;;;5.38;;
59728;SDS011;45588;51.598;5.618;2024-02-15T05:21:00;18.33;;;5.63;;
59728;SDS011;45588;51.598;5.618;2024-02-15T05:23:27;18.77;;;6.47;;
59728;SDS011;45588;51.598;5.618;2024-02-15T05:25:52;17.20;;;4.88;;
59728;SDS011;45588;51.598;5.618;2024-02-15T05:28:19;15.13;;;5.30;;
59728;SDS011;45588;51.598;5.618;2024-02-15T05:30:45;16.10;;;4.75;;
59728;SDS011;45588;51.598;5.618;2024-02-15T05:33:11;12.27;;;4.70;;
59728;SDS011;45588;51.598;5.618;2024-02-15T05:35:36;16.15;;;5.55;;
59728;SDS011;45588;51.598;5.618;2024-02-15T05:38:04;10.75;;;4.95;;
59728;SDS011;45588;51.598;5.618;2024-02-15T05:40:31;12.00;;;5.05;;
59728;SDS011;45588;51.598;5.618;2024-02-15T05:42:57;23.25;;;11.02;;
59728;SDS011;45588;51.598;5.618;2024-02-15T05:47:49;10.75;;;6.20;;
59728;SDS011;45588;51.598;5.618;2024-02-15T05:50:14;16.47;;;4.53;;
59728;SDS011;45588;51.598;5.618;2024-02-15T05:52:40;17.35;;;5.25;;
59728;SDS011;45588;51.598;5.618;2024-02-15T05:55:05;15.30;;;5.05;;
59728;SDS011;45588;51.598;5.618;2024-02-15T05:57:30;13.80;;;5.43;;
59728;SDS011;45588;51.598;5.618;2024-02-15T05:59:56;14.20;;;5.60;;
59728;SDS011;45588;51.598;5.618;2024-02-15T06:02:21;15.75;;;5.88;;
59728;SDS011;45588;51.598;5.618;2024-02-15T06:04:46;15.53;;;4.00;;
59728;SDS011;45588;51.598;5.618;2024-02-15T06:07:11;25.88;;;10.00;;
59728;SDS011;45588;51.598;5.618;2024-02-15T06:09:37;14.83;;;6.00;;
59728;SDS011;45588;51.598;5.618;2024-02-15T06:12:05;27.90;;;10.77;;
59728;SDS011;45588;51.598;5.618;2024-02-15T06:14:31;13.65;;;5.45;;
59728;SDS011;45588;51.598;5.618;2024-02-15T06:16:56;21.60;;;10.07;;
59728;SDS011;45588;51.598;5.618;2024-02-15T06:19:23;15.63;;;4.78;;
59728;SDS011;45588;51.598;5.618;2024-02-15T06:21:48;17.30;;;6.33;;
59728;SDS011;45588;51.598;5.618;2024-02-15T06:24:13;16.77;;;5.03;;
59728;SDS011;45588;51.598;5.618;2024-02-15T06:26:39;19.40;;;4.95;;
59728;SDS011;45588;51.598;5.618;2024-02-15T06:29:04;15.63;;;4.63;;
59728;SDS011;45588;51.598;5.618;2024-02-15T06:31:48;11.85;;;4.93;;
59728;SDS011;45588;51.598;5.618;2024-02-15T06:34:32;26.08;;;10.70;;
59728;SDS011;45588;51.598;5.618;2024-02-15T06:37:34;17.20;;;6.22;;
59728;SDS011;45588;51.598;5.618;2024-02-15T06:40:18;11.82;;;4.95;;
59728;SDS011;45588;51.598;5.618;2024-02-15T06:42:43;12.73;;;4.83;;
59728;SDS011;45588;51.598;5.618;2024-02-15T06:45:08;19.30;;;5.80;;
59728;SDS011;45588;51.598;5.618;2024-02-15T06:47:35;21.08;;;6.18;;
59728;SDS011;45588;51.598;5.618;2024-02-15T06:50:00;13.67;;;5.00;;
59728;SDS011;45588;51.598;5.618;2024-02-15T06:52:25;8.53;;;4.60;;
59728;SDS011;45588;51.598;5.618;2024-02-15T06:54:50;11.17;;;4.87;;
59728;SDS011;45588;51.598;5.618;2024-02-15T06:57:17;11.80;;;5.30;;
59728;SDS011;45588;51.598;5.618;2024-02-15T06:59:46;16.45;;;5.32;;
59728;SDS011;45588;51.598;5.618;2024-02-15T07:02:11;19.33;;;5.13;;
59728;SDS011;45588;51.598;5.618;2024-02-15T07:04:37;10.02;;;5.00;;
59728;SDS011;45588;51.598;5.618;2024-02-15T07:07:02;10.60;;;4.87;;
59728;SDS011;45588;51.598;5.618;2024-02-15T07:09:28;13.90;;;5.25;;
59728;SDS011;45588;51.598;5.618;2024-02-15T07:11:53;16.63;;;5.93;;
59728;SDS011;45588;51.598;5.618;2024-02-15T07:14:18;15.43;;;5.27;;
59728;SDS011;45588;51.598;5.618;2024-02-15T07:16:45;15.25;;;6.50;;
59728;SDS011;45588;51.598;5.618;2024-02-15T07:19:10;12.45;;;4.97;;
59728;SDS011;45588;51.598;5.618;2024-02-15T07:21:36;12.85;;;5.15;;
59728;SDS011;45588;51.598;5.618;2024-02-15T07:24:03;11.50;;;4.60;;
59728;SDS011;45588;51.598;5.618;2024-02-15T07:26:29;8.90;;;4.85;;
59728;SDS011;45588;51.598;5.618;2024-02-15T07:28:55;19.20;;;5.30;;
59728;SDS011;45588;51.598;5.618;2024-02-15T07:31:21;12.52;;;4.80;;
59728;SDS011;45588;51.598;5.618;2024-02-15T07:33:46;14.85;;;5.18;;
59728;SDS011;45588;51.598;5.618;2024-02-15T07:36:12;9.18;;;4.55;;
59728;SDS011;45588;51.598;5.618;2024-02-15T07:38:38;16.10;;;5.20;;
59728;SDS011;45588;51.598;5.618;2024-02-15T07:41:03;13.90;;;5.07;;
59728;SDS011;45588;51.598;5.618;2024-02-15T07:43:28;13.43;;;4.68;;
59728;SDS011;45588;51.598;5.618;2024-02-15T07:45:53;10.30;;;4.85;;
59728;SDS011;45588;51.598;5.618;2024-02-15T07:48:18;11.53;;;5.43;;
59728;SDS011;45588;51.598;5.618;2024-02-15T07:50:44;15.83;;;5.17;;
59728;SDS011;45588;51.598;5.618;2024-02-15T07:53:09;9.95;;;6.55;;
59728;SDS011;45588;51.598;5.618;2024-02-15T07:55:36;11.07;;;4.53;;
59728;SDS011;45588;51.598;5.618;2024-02-15T07:58:02;15.48;;;5.63;;
59728;SDS011;45588;51.598;5.618;2024-02-15T08:00:28;15.50;;;5.35;;
59728;SDS011;45588;51.598;5.618;2024-02-15T08:02:54;12.35;;;4.60;;
59728;SDS011;45588;51.598;5.618;2024-02-15T08:05:19;5.90;;;4.03;;
59728;SDS011;45588;51.598;5.618;2024-02-15T08:07:46;10.80;;;4.65;;
59728;SDS011;45588;51.598;5.618;2024-02-15T08:10:12;15.00;;;4.60;;
59728;SDS011;45588;51.598;5.618;2024-02-15T08:12:45;18.02;;;5.40;;
59728;SDS011;45588;51.598;5.618;2024-02-15T08:15:10;13.10;;;5.03;;
59728;SDS011;45588;51.598;5.618;2024-02-15T08:17:41;15.52;;;4.82;;
59728;SDS011;45588;51.598;5.618;2024-02-15T08:20:07;14.25;;;5.15;;
59728;SDS011;45588;51.598;5.618;2024-02-15T08:22:34;11.20;;;4.85;;
59728;SDS011;45588;51.598;5.618;2024-02-15T08:24:59;11.33;;;4.23;;
59728;SDS011;45588;51.598;5.618;2024-02-15T08:27:24;12.05;;;4.95;;
59728;SDS011;45588;51.598;5.618;2024-02-15T08:29:49;9.13;;;4.13;;
59728;SDS011;45588;51.598;5.618;2024-02-15T08:32:15;13.43;;;5.33;;
59728;SDS011;45588;51.598;5.618;2024-02-15T08:34:40;23.23;;;6.07;;
59728;SDS011;45588;51.598;5.618;2024-02-15T08:37:05;14.73;;;5.23;;
59728;SDS011;45588;51.598;5.618;2024-02-15T08:39:31;10.05;;;5.15;;
59728;SDS011;45588;51.598;5.618;2024-02-15T08:41:57;11.60;;;4.75;;
59728;SDS011;45588;51.598;5.618;2024-02-15T08:44:23;13.55;;;5.60;;
59728;SDS011;45588;51.598;5.618;2024-02-15T08:46:49;10.48;;;4.57;;
59728;SDS011;45588;51.598;5.618;2024-02-15T08:49:15;16.27;;;4.80;;
59728;SDS011;45588;51.598;5.618;2024-02-15T08:51:40;15.93;;;5.20;;
59728;SDS011;45588;51.598;5.618;2024-02-15T08:54:05;12.27;;;4.35;;
59728;SDS011;45588;51.598;5.618;2024-02-15T08:56:30;9.35;;;4.20;;
59728;SDS011;45588;51.598;5.618;2024-02-15T08:58:55;15.63;;;8.90;;
59728;SDS011;45588;51.598;5.618;2024-02-15T09:01:22;12.07;;;5.03;;
59728;SDS011;45588;51.598;5.618;2024-02-15T09:03:47;13.57;;;4.20;;
59728;SDS011;45588;51.598;5.618;2024-02-15T09:06:13;10.80;;;4.07;;
59728;SDS011;45588;51.598;5.618;2024-02-15T09:08:38;10.32;;;4.47;;
59728;SDS011;45588;51.598;5.618;2024-02-15T09:11:03;10.23;;;4.47;;
59728;SDS011;45588;51.598;5.618;2024-02-15T09:13:28;17.27;;;4.65;;
59728;SDS011;45588;51.598;5.618;2024-02-15T09:15:53;9.93;;;3.83;;
59728;SDS011;45588;51.598;5.618;2024-02-15T09:18:20;11.95;;;3.80;;
59728;SDS011;45588;51.598;5.618;2024-02-15T09:20:47;9.48;;;4.43;;
59728;SDS011;45588;51.598;5.618;2024-02-15T09:23:14;13.20;;;4.78;;
59728;SDS011;45588;51.598;5.618;2024-02-15T09:25:39;19.10;;;7.65;;
59728;SDS011;45588;51.598;5.618;2024-02-15T09:28:05;17.38;;;7.43;;
59728;SDS011;45588;51.598;5.618;2024-02-15T09:30:30;11.63;;;4.25;;
59728;SDS011;45588;51.598;5.618;2024-02-15T09:32:56;9.80;;;3.97;;
59728;SDS011;45588;51.598;5.618;2024-02-15T09:35:22;12.52;;;4.75;;
59728;SDS011;45588;51.598;5.618;2024-02-15T09:37:47;14.93;;;4.95;;
59728;SDS011;45588;51.598;5.618;2024-02-15T09:40:16;21.45;;;7.05;;
59728;SDS011;45588;51.598;5.618;2024-02-15T09:42:42;11.73;;;4.43;;
59728;SDS011;45588;51.598;5.618;2024-02-15T09:45:09;9.23;;;4.13;;
59728;SDS011;45588;51.598;5.618;2024-02-15T09:47:36;12.57;;;4.40;;
59728;SDS011;45588;51.598;5.618;2024-02-15T09:50:05;8.43;;;3.95;;
59728;SDS011;45588;51.598;5.618;2024-02-15T09:52:31;9.30;;;3.97;;
59728;SDS011;45588;51.598;5.618;2024-02-15T09:54:58;9.27;;;4.00;;
59728;SDS011;45588;51.598;5.618;2024-02-15T09:57:23;19.60;;;7.57;;
59728;SDS011;45588;51.598;5.618;2024-02-15T09:59:49;16.05;;;4.03;;
59728;SDS011;45588;51.598;5.618;2024-02-15T10:02:14;12.38;;;5.28;;
59728;SDS011;45588;51.598;5.618;2024-02-15T10:04:40;14.98;;;3.95;;
59728;SDS011;45588;51.598;5.618;2024-02-15T10:07:05;19.05;;;3.97;;
59728;SDS011;45588;51.598;5.618;2024-02-15T10:09:33;8.75;;;3.20;;
59728;SDS011;45588;51.598;5.618;2024-02-15T10:11:59;10.68;;;3.78;;
59728;SDS011;45588;51.598;5.618;2024-02-15T10:14:25;14.02;;;4.07;;
59728;SDS011;45588;51.598;5.618;2024-02-15T10:16:52;11.65;;;3.92;;
59728;SDS011;45588;51.598;5.618;2024-02-15T10:19:17;12.27;;;5.13;;
59728;SDS011;45588;51.598;5.618;2024-02-15T10:21:43;22.75;;;7.32;;
59728;SDS011;45588;51.598;5.618;2024-02-15T10:24:08;12.35;;;6.03;;
59728;SDS011;45588;51.598;5.618;2024-02-15T10:26:34;16.08;;;6.10;;
59728;SDS011;45588;51.598;5.618;2024-02-15T10:29:06;8.52;;;2.38;;
59728;SDS011;45588;51.598;5.618;2024-02-15T10:31:35;8.15;;;3.30;;
59728;SDS011;45588;51.598;5.618;2024-02-15T10:34:02;9.73;;;3.65;;
59728;SDS011;45588;51.598;5.618;2024-02-15T10:36:29;9.73;;;3.45;;
59728;SDS011;45588;51.598;5.618;2024-02-15T10:38:59;15.35;;;6.63;;
59728;SDS011;45588;51.598;5.618;2024-02-15T10:41:35;18.52;;;8.00;;
59728;SDS011;45588;51.598;5.618;2024-02-15T10:44:01;12.80;;;6.40;;
59728;SDS011;45588;51.598;5.618;2024-02-15T10:46:27;17.70;;;6.40;;
59728;SDS011;45588;51.598;5.618;2024-02-15T10:48:52;6.20;;;3.03;;
59728;SDS011;45588;51.598;5.618;2024-02-15T10:51:17;16.27;;;4.67;;
59728;SDS011;45588;51.598;5.618;2024-02-15T10:53:45;7.43;;;3.30;;
59728;SDS011;45588;51.598;5.618;2024-02-15T10:56:14;11.82;;;6.05;;
59728;SDS011;45588;51.598;5.618;2024-02-15T10:58:52;14.90;;;3.58;;
59728;SDS011;45588;51.598;5.618;2024-02-15T11:01:20;8.10;;;3.03;;
59728;SDS011;45588;51.598;5.618;2024-02-15T11:03:51;6.50;;;2.60;;
59728;SDS011;45588;51.598;5.618;2024-02-15T11:06:18;13.98;;;4.22;;
59728;SDS011;45588;51.598;5.618;2024-02-15T11:08:46;11.35;;;3.13;;
59728;SDS011;45588;51.598;5.618;2024-02-15T11:11:11;13.68;;;4.60;;
59728;SDS011;45588;51.598;5.618;2024-02-15T11:13:39;19.67;;;4.78;;
59728;SDS011;45588;51.598;5.618;2024-02-15T11:16:04;11.50;;;3.03;;
59728;SDS011;45588;51.598;5.618;2024-02-15T11:18:45;12.88;;;5.00;;
59728;SDS011;45588;51.598;5.618;2024-02-15T11:21:16;11.88;;;4.85;;
59728;SDS011;45588;51.598;5.618;2024-02-15T11:23:42;3.97;;;2.47;;
59728;SDS011;45588;51.598;5.618;2024-02-15T11:26:43;6.10;;;2.22;;
59728;SDS011;45588;51.598;5.618;2024-02-15T11:28:55;8.20;;;2.85;;
59728;SDS011;45588;51.598;5.618;2024-02-15T11:31:54;16.23;;;4.78;;
59728;SDS011;45588;51.598;5.618;2024-02-15T11:36:57;11.70;;;4.20;;
59728;SDS011;45588;51.598;5.618;2024-02-15T11:39:41;14.97;;;4.47;;
59728;SDS011;45588;51.598;5.618;2024-02-15T11:42:24;17.27;;;5.30;;
59728;SDS011;45588;51.598;5.618;2024-02-15T11:44:50;11.73;;;4.63;;
59728;SDS011;45588;51.598;5.618;2024-02-15T11:47:30;11.25;;;3.05;;
59728;SDS011;45588;51.598;5.618;2024-02-15T11:49:56;5.07;;;3.35;;
59728;SDS011;45588;51.598;5.618;2024-02-15T11:52:21;8.90;;;3.03;;
59728;SDS011;45588;51.598;5.618;2024-02-15T11:54:47;12.30;;;4.43;;
59728;SDS011;45588;51.598;5.618;2024-02-15T11:57:13;9.43;;;4.25;;
59728;SDS011;45588;51.598;5.618;2024-02-15T11:59:47;7.82;;;2.83;;
59728;SDS011;45588;51.598;5.618;2024-02-15T12:02:21;9.80;;;4.32;;
59728;SDS011;45588;51.598;5.618;2024-02-15T12:05:05;9.15;;;4.13;;
59728;SDS011;45588;51.598;5.618;2024-02-15T12:07:49;9.57;;;3.90;;
59728;SDS011;45588;51.598;5.618;2024-02-15T12:10:33;13.35;;;4.05;;
59728;SDS011;45588;51.598;5.618;2024-02-15T12:13:17;10.27;;;3.70;;
59728;SDS011;45588;51.598;5.618;2024-02-15T12:16:01;10.98;;;3.80;;
59728;SDS011;45588;51.598;5.618;2024-02-15T12:18:45;11.75;;;3.72;;
59728;SDS011;45588;51.598;5.618;2024-02-15T12:21:18;12.20;;;4.07;;
59728;SDS011;45588;51.598;5.618;2024-02-15T12:23:46;8.63;;;2.65;;
59728;SDS011;45588;51.598;5.618;2024-02-15T12:26:11;3.90;;;2.50;;
59728;SDS011;45588;51.598;5.618;2024-02-15T12:28:39;12.82;;;4.25;;
59728;SDS011;45588;51.598;5.618;2024-02-15T12:31:04;8.13;;;4.22;;
59728;SDS011;45588;51.598;5.618;2024-02-15T12:33:31;6.82;;;4.07;;
59728;SDS011;45588;51.598;5.618;2024-02-15T12:36:04;11.38;;;4.55;;
59728;SDS011;45588;51.598;5.618;2024-02-15T12:38:33;11.57;;;4.57;;
59728;SDS011;45588;51.598;5.618;2024-02-15T12:41:02;8.13;;;3.75;;
59728;SDS011;45588;51.598;5.618;2024-02-15T12:43:27;8.68;;;3.78;;
59728;SDS011;45588;51.598;5.618;2024-02-15T12:45:52;6.10;;;4.32;;
59728;SDS011;45588;51.598;5.618;2024-02-15T12:48:19;9.63;;;5.22;;
59728;SDS011;45588;51.598;5.618;2024-02-15T12:50:44;12.37;;;4.43;;
59728;SDS011;45588;51.598;5.618;2024-02-15T12:53:09;9.65;;;4.55;;
59728;SDS011;45588;51.598;5.618;2024-02-15T12:55:36;9.32;;;4.90;;
59728;SDS011;45588;51.598;5.618;2024-02-15T12:58:02;11.40;;;5.13;;
59728;SDS011;45588;51.598;5.618;2024-02-15T13:00:33;11.18;;;4.10;;
59728;SDS011;45588;51.598;5.618;2024-02-15T13:03:01;8.35;;;4.38;;
59728;SDS011;45588;51.598;5.618;2024-02-15T13:05:31;9.40;;;4.00;;
59728;SDS011;45588;51.598;5.618;2024-02-15T13:07:56;7.22;;;3.70;;
59728;SDS011;45588;51.598;5.618;2024-02-15T13:10:27;12.00;;;4.32;;
59728;SDS011;45588;51.598;5.618;2024-02-15T13:12:53;9.32;;;3.80;;
59728;SDS011;45588;51.598;5.618;2024-02-15T13:15:18;7.75;;;4.05;;
59728;SDS011;45588;51.598;5.618;2024-02-15T13:17:44;10.85;;;3.28;;
59728;SDS011;45588;51.598;5.618;2024-02-15T13:20:10;5.65;;;2.65;;
59728;SDS011;45588;51.598;5.618;2024-02-15T13:22:38;7.68;;;2.95;;
59728;SDS011;45588;51.598;5.618;2024-02-15T13:25:07;7.63;;;2.85;;
59728;SDS011;45588;51.598;5.618;2024-02-15T13:27:38;9.05;;;3.45;;
59728;SDS011;45588;51.598;5.618;2024-02-15T13:30:04;8.18;;;2.75;;
59728;SDS011;45588;51.598;5.618;2024-02-15T13:32:33;5.50;;;2.13;;
59728;SDS011;45588;51.598;5.618;2024-02-15T13:34:58;9.25;;;3.25;;
59728;SDS011;45588;51.598;5.618;2024-02-15T13:37:32;10.23;;;3.83;;
59728;SDS011;45588;51.598;5.618;2024-02-15T13:39:57;7.83;;;3.50;;
59728;SDS011;45588;51.598;5.618;2024-02-15T13:42:22;15.60;;;4.13;;
59728;SDS011;45588;51.598;5.618;2024-02-15T13:44:47;11.47;;;3.67;;
59728;SDS011;45588;51.598;5.618;2024-02-15T13:47:13;6.70;;;2.72;;
59728;SDS011;45588;51.598;5.618;2024-02-15T13:49:38;7.33;;;3.00;;
59728;SDS011;45588;51.598;5.618;2024-02-15T13:52:04;8.00;;;3.33;;
59728;SDS011;45588;51.598;5.618;2024-02-15T13:54:31;9.90;;;3.20;;
59728;SDS011;45588;51.598;5.618;2024-02-15T13:56:56;7.43;;;3.30;;
59728;SDS011;45588;51.598;5.618;2024-02-15T13:59:22;6.07;;;2.65;;
59728;SDS011;45588;51.598;5.618;2024-02-15T14:01:48;7.07;;;3.13;;
59728;SDS011;45588;51.598;5.618;2024-02-15T14:04:14;10.02;;;3.33;;
59728;SDS011;45588;51.598;5.618;2024-02-15T14:06:41;8.35;;;3.13;;
59728;SDS011;45588;51.598;5.618;2024-02-15T14:09:09;4.55;;;1.98;;
59728;SDS011;45588;51.598;5.618;2024-02-15T14:11:36;7.93;;;3.00;;
59728;SDS011;45588;51.598;5.618;2024-02-15T14:14:02;8.88;;;2.92;;
59728;SDS011;45588;51.598;5.618;2024-02-15T14:16:28;7.77;;;2.90;;
59728;SDS011;45588;51.598;5.618;2024-02-15T14:18:54;6.65;;;2.80;;
59728;SDS011;45588;51.598;5.618;2024-02-15T14:21:19;10.30;;;3.47;;
59728;SDS011;45588;51.598;5.618;2024-02-15T14:23:45;7.32;;;3.00;;
59728;SDS011;45588;51.598;5.618;2024-02-15T14:26:10;8.15;;;2.92;;
59728;SDS011;45588;51.598;5.618;2024-02-15T14:28:35;8.27;;;2.60;;
59728;SDS011;45588;51.598;5.618;2024-02-15T14:31:01;5.03;;;2.30;;
59728;SDS011;45588;51.598;5.618;2024-02-15T14:33:44;6.90;;;2.75;;
59728;SDS011;45588;51.598;5.618;2024-02-15T14:36:10;5.72;;;2.60;;
59728;SDS011;45588;51.598;5.618;2024-02-15T14:38:36;8.82;;;2.70;;